Accueil
METAR-TAF:

METAR-TAF

Aéroports :

Aéroport international Montréal-Mirabel

Montréal-Mirabel, Québec, Canada

latitude: 45-41N, longitude: 074-02W, altitude: 82 m

Observation

Le bulletin a été fait il y a 21 minutes, à 03:00 UTC
Vent calme
Température 16°C
Humidité 100%
Pression 1016 hPa
Visibilité: 40.2 km
Quelques nuages à une hauteur de 6000 ft

METAR: CYMX 190300Z 00000KT 25SM FEW060 16/16 A2999 RMK SC1 SLP157 DENSITY ALT 400FT

Heure: 23:21 (03:21 UTC)

Prévision

Le bulletin a été fait il y a 3 heures et 43 minutes, à 23:38 UTC
Prévision valable du 19 à 00 UTC au 19 à 24 UTC
Vent 5 kt de nord-est
Visibilité: 10 km
Quelques nuages à une hauteur de 4000 ft
Evoluant progressivement
du 19 à 14 UTC au 19 à 16 UTC
Vent 7 kt de est

TAF: CYMX 182338Z 1900/1924 04005KT P6SM FEW040 BECMG 1914/1916 10007KT RMK NXT FCST BY 190600Z

Observations et prévisions météorologiques de plus de 4000 aéroports (messages METAR et TAF).

Les stations disponibles sont représentées par des disques jaunes et rouges sur la carte.

Passer la souris dessus pour voir le nom de la station.

Cliquer dessus pour voir les observations et prévisions météorologiques.

Pour changer de carte: cliquez sur les boutons verts avec une croix noire pour zoomer, sur le bouton vert avec un tiret pour effectuer un zoom arrière, ou sur les flèches vertes pour les cartes adjacentes.


METAR-TAF: